D/T METAR WX W/DIR W/SPE G/SPE TEMP DEWP
19/03/19 02:50 EGYD 190250Z AUTO 25006KT 5000 // FEW028/// SCT034/// BKN043/// 07/06 Q1023 WSW (250°) 6.9mph 7°C 6°C
19/03/19 01:50 EGYD 190150Z AUTO 20004KT 5000 // FEW034/// BKN041/// 07/06 Q1023 SSW (200°) 4.6mph 7°C 6°C
19/03/19 00:50 EGYD 190050Z AUTO 23004KT 6000 // FEW010/// BKN028/// 07/06 Q1023 SW (230°) 4.6mph 7°C 6°C
18/03/19 23:50 EGYD 182350Z AUTO 22006KT 8000 // FEW021/// BKN040/// 07/06 Q1023 SW (220°) 6.9mph 7°C 6°C
18/03/19 22:50 EGYD 182250Z AUTO 24007KT 9999 // BKN032/// BKN050/// 07/05 Q1023 WSW (240°) 8.1mph 7°C 5°C
18/03/19 21:50 EGYD 182150Z AUTO 25008KT 9999 // BKN034/// BKN044/// BKN050/// 07/05 Q1022 WSW (250°) 9.2mph 7°C 5°C
18/03/19 20:50 EGYD 182050Z AUTO 24006KT 9999 // BKN040/// 07/05 Q1022 WSW (240°) 6.9mph 7°C 5°C
18/03/19 19:50 EGYD 181950Z AUTO 24006KT 9999 // BKN035/// BKN045/// 07/05 Q1022 WSW (240°) 6.9mph 7°C 5°C
18/03/19 18:50 EGYD 181850Z AUTO 23006KT 9999 // SCT044/// BKN100/// 06/04 Q1021 SW (230°) 6.9mph 6°C 4°C
18/03/19 17:50 EGYD 181750Z AUTO 25005KT 9999 // FEW037/// 06/03 Q1021 WSW (250°) 5.8mph 6°C 3°C
18/03/19 16:50 EGYD 181650Z 26009KT 9999 FEW030 09/03 Q1020 BLU NOSIG W (260°) 10.4mph 9°C 3°C
18/03/19 15:50 EGYD 181550Z 26013KT 9999 FEW025CB 10/04 Q1020 BLU NOSIG W (260°) 15.0mph 10°C 4°C
18/03/19 14:50 EGYD 181450Z 27008KT 9999 FEW025CB SCT030 10/05 Q1019 BLU TEMPO 5000 SHRA SCT020TCU WHT W (270°) 9.2mph 10°C 5°C
18/03/19 14:06 EGYD 181406Z 23009KT 9999 FEW020CB SCT028 08/05 Q1019 BLU TEMPO 4000 SHRA SCT015CB GRN SW (230°) 10.4mph 8°C 5°C
18/03/19 12:50 EGYD 181250Z 27012KT 9999 VCSH SCT028 SCT050 10/03 Q1019 BLU TEMPO 5000 SHRA BKN020TCU WHT VCSH W (270°) 13.8mph 10°C 3°C
18/03/19 11:50 EGYD 181150Z 28010KT 9999 SCT028 BKN250 09/02 Q1019 BLU TEMPO 5000 SHRA SCT022 WHT W (280°) 11.5mph 9°C 2°C
18/03/19 10:50 EGYD 181050Z 27011KT 9999 BKN018 BKN250 09/04 Q1019 WHT TEMPO 5000 SHRA WHT W (270°) 12.7mph 9°C 4°C
18/03/19 10:18 EGYD 181018Z 28010KT 9999 SCT016 BKN250 08/05 Q1019 WHT TEMPO FEW016 BLU W (280°) 11.5mph 8°C 5°C
18/03/19 08:50 EGYD 180850Z 26012KT 9999 FEW025 BKN250 06/04 Q1018 BLU NOSIG W (260°) 13.8mph 6°C 4°C
18/03/19 07:50 EGYD 180750Z 26008KT 9999 FEW028 SCT120 BKN250 05/03 Q1017 BLU NOSIG W (260°) 9.2mph 5°C 3°C
18/03/19 06:50 EGYD 180650Z 24007KT 9999 FEW030 BKN060 BKN250 03/01 Q1017 BLU NOSIG WSW (240°) 8.1mph 3°C 1°C
18/03/19 05:50 EGYD 180550Z AUTO 26007KT 9999 // SCT130/// 02/00 Q1016 W (260°) 8.1mph 2°C 0°C
18/03/19 04:50 EGYD 180450Z AUTO 29009KT 9999 // FEW180/// SCT220/// 04/01 Q1016 WNW (290°) 10.4mph 4°C 1°C
18/03/19 03:50 EGYD 180350Z AUTO 24007KT 9999 // SCT044/// SCT220/// 01/00 Q1015 WSW (240°) 8.1mph 1°C 0°C
18/03/19 02:50 EGYD 180250Z AUTO 26008KT 9999 // NCD 02/01 Q1014 W (260°) 9.2mph 2°C 1°C
18/03/19 01:50 EGYD 180150Z AUTO 25009KT 9999 // FEW060/// 02/01 Q1014 WSW (250°) 10.4mph 2°C 1°C
18/03/19 00:50 EGYD 180050Z AUTO 27008KT 9999 // FEW060/// 03/02 Q1013 W (270°) 9.2mph 3°C 2°C
17/03/19 23:50 EGYD 172350Z AUTO 28009KT 9999 // SCT060/// 04/02 Q1013 W (280°) 10.4mph 4°C 2°C
17/03/19 22:50 EGYD 172250Z AUTO 31008KT 9999 // FEW060/// 05/02 Q1012 NW (310°) 9.2mph 5°C 2°C
17/03/19 21:50 EGYD 172150Z AUTO 28010KT 9999 // NCD 04/02 Q1011 W (280°) 11.5mph 4°C 2°C
17/03/19 20:50 EGYD 172050Z AUTO 27010KT 9999 // FEW060/// 05/02 Q1009 W (270°) 11.5mph 5°C 2°C
17/03/19 19:50 EGYD 171950Z AUTO 28012KT 9999 // NCD 05/02 Q1008 W (280°) 13.8mph 5°C 2°C
17/03/19 18:50 EGYD 171850Z AUTO 27011KT 9999 // SCT043/// 06/02 Q1007 W (270°) 12.7mph 6°C 2°C
17/03/19 17:50 EGYD 171750Z AUTO 28015KT 9999 // NCD 07/01 Q1006 W (280°) 17.3mph 7°C 1°C
17/03/19 16:50 EGYD 171650Z AUTO 28016KT 9999 // NCD 08/00 Q1005 W (280°) 18.4mph 8°C 0°C
17/03/19 15:50 EGYD 171550Z AUTO 29015KT 9999 // BKN044/// 08/M01 Q1004 WNW (290°) 17.3mph 8°C -1°C
17/03/19 14:50 EGYD 171450Z AUTO 28016G28KT 9999 // FEW060/// 09/M00 Q1003 W (280°) 18.4mph 32.2mph 9°C 0°C
17/03/19 13:50 EGYD 171350Z AUTO 27022KT 9999 // FEW050/// 08/M00 Q1003 W (270°) 25.3mph 8°C 0°C
17/03/19 12:50 EGYD 171250Z AUTO 27018G28KT 9999 // FEW050/// 08/02 Q1002 W (270°) 20.7mph 32.2mph 8°C 2°C
17/03/19 11:50 EGYD 171150Z AUTO 27021KT 9999 // SCT028/// 08/01 Q1002 W (270°) 24.2mph 8°C 1°C
17/03/19 10:50 EGYD 171050Z 27019KT 9999 -SHGS SCT030 07/01 Q1001 BLU -SHGS W (270°) 21.9mph 7°C 1°C
17/03/19 09:50 EGYD 170950Z 27019KT 9999 SCT025 06/01 Q1001 BLU NOSIG W (270°) 21.9mph 6°C 1°C
17/03/19 08:50 EGYD 170850Z 27020KT 9999 FEW015 SCT020 05/02 Q1000 WHT TEMPO FEW020 BLU W (270°) 23.0mph 5°C 2°C
17/03/19 07:50 EGYD 170750Z 27018KT 9999 FEW010 04/01 Q0999 BLU TEMPO 6000 SHRA SCT022 WHT W (270°) 20.7mph 4°C 1°C
17/03/19 06:50 EGYD 170650Z AUTO 26017KT 9999 // FEW025/// 02/01 Q0998 W (260°) 19.6mph 2°C 1°C
17/03/19 05:50 EGYD 170550Z AUTO 25018KT 9999 // FEW031/// SCT160/// 02/01 Q0997 WSW (250°) 20.7mph 2°C 1°C
17/03/19 04:50 EGYD 170450Z AUTO 26017KT 9999 // FEW031/// BKN120/// 03/01 Q0996 W (260°) 19.6mph 3°C 1°C
17/03/19 03:50 EGYD 170350Z AUTO 26016KT 9999 // OVC050/// 04/02 Q0995 W (260°) 18.4mph 4°C 2°C
17/03/19 02:50 EGYD 170250Z AUTO 27016KT 9999 // BKN070/// 04/02 Q0995 W (270°) 18.4mph 4°C 2°C
17/03/19 01:50 EGYD 170150Z AUTO 26011KT 9999 // FEW140/// 04/02 Q0994 W (260°) 12.7mph 4°C 2°C
17/03/19 00:50 EGYD 170050Z AUTO 27013KT 9999 // SCT021/// 05/03 Q0993 W (270°) 15.0mph 5°C 3°C
16/03/19 23:50 EGYD 162350Z AUTO 26017KT 9999 // SCT110/// 05/03 Q0993 W (260°) 19.6mph 5°C 3°C
16/03/19 22:50 EGYD 162250Z AUTO 27015KT 9999 // FEW120/// BKN200/// 06/02 Q0992 W (270°) 17.3mph 6°C 2°C
16/03/19 21:50 EGYD 162150Z AUTO 27015KT 9999 // BKN070/// 06/03 Q0992 W (270°) 17.3mph 6°C 3°C
16/03/19 20:50 EGYD 162050Z AUTO 27016KT 9999 // FEW039/// BKN045/// 06/04 Q0991 W (270°) 18.4mph 6°C 4°C
16/03/19 19:50 EGYD 161950Z AUTO 24025KT 9999 // FEW024/// BKN050/// 09/07 Q0990 WSW (240°) 28.8mph 9°C 7°C
16/03/19 18:50 EGYD 161850Z AUTO 22027G40KT 9999 // FEW023/// SCT030/// BKN070/// 10/08 Q0989 SW (220°) 31.1mph 46.0mph 10°C 8°C
16/03/19 17:50 EGYD 161750Z AUTO 22030KT 9999 // SCT022/// BKN031/// 11/08 Q0990 SW (220°) 34.5mph 11°C 8°C
16/03/19 16:50 EGYD 161650Z AUTO 21028G39KT 9999 // SCT019/// BKN070/// 11/08 Q0990 SSW (210°) 32.2mph 44.9mph 11°C 8°C
16/03/19 15:50 EGYD 161550Z AUTO 22030KT 9999 // OVC023/// 11/07 Q0991 SW (220°) 34.5mph 11°C 7°C
16/03/19 14:50 EGYD 161450Z AUTO 22031G43KT 9999 // OVC024/// 12/07 Q0992 SW (220°) 35.7mph 49.5mph 12°C 7°C
16/03/19 13:50 EGYD 161350Z AUTO 22030G43KT 9999 // BKN024/// 12/07 Q0993 SW (220°) 34.5mph 49.5mph 12°C 7°C
16/03/19 12:50 EGYD 161250Z AUTO 23028G39KT 9999 // BKN022/// 12/07 Q0994 SW (230°) 32.2mph 44.9mph 12°C 7°C
16/03/19 11:50 EGYD 161150Z AUTO 23031G41KT 9999 // OVC023/// 11/07 Q0995 SW (230°) 35.7mph 47.2mph 11°C 7°C
16/03/19 10:50 EGYD 161050Z AUTO 22024KT 9999 // BKN023/// 11/07 Q0996 SW (220°) 27.6mph 11°C 7°C
16/03/19 09:50 EGYD 160950Z AUTO 22025G37KT 9999 // SCT022/// BKN031/// 11/08 Q0996 SW (220°) 28.8mph 42.6mph 11°C 8°C
16/03/19 08:50 EGYD 160850Z AUTO 22029KT 9999 // FEW019/// BKN022/// BKN035/// 11/08 Q0997 SW (220°) 33.4mph 11°C 8°C
16/03/19 07:50 EGYD 160750Z AUTO 22024KT 9999 // FEW020/// BKN032/// 10/08 Q0997 SW (220°) 27.6mph 10°C 8°C
16/03/19 06:50 EGYD 160650Z AUTO 21025KT 9999 // BKN034/// 10/08 Q0998 SSW (210°) 28.8mph 10°C 8°C
16/03/19 05:50 EGYD 160550Z AUTO 22026KT 9999 // FEW017/// BKN026/// 10/08 Q0999 SW (220°) 29.9mph 10°C 8°C
16/03/19 04:50 EGYD 160450Z AUTO 22023KT 9999 // FEW015/// BKN030/// 10/09 Q1000 SW (220°) 26.5mph 10°C 9°C
16/03/19 03:50 EGYD 160350Z AUTO 15011KT 4800 // BKN002/// BKN010/// 07/07 Q1001 SSE (150°) 12.7mph 7°C 7°C
16/03/19 02:50 EGYD 160250Z AUTO 15008KT 2700 // FEW003/// BKN014/// 07/06 Q1003 SSE (150°) 9.2mph 7°C 6°C
16/03/19 01:50 EGYD 160150Z AUTO 17004KT 7000 // BKN022/// SCT034/// 06/05 Q1004 S (170°) 4.6mph 6°C 5°C
16/03/19 00:50 EGYD 160050Z AUTO 20009KT 9999 // FEW031/// SCT037/// BKN050/// 07/05 Q1006 SSW (200°) 10.4mph 7°C 5°C
15/03/19 23:50 EGYD 152350Z AUTO 17007KT 9999 // OVC060/// 07/04 Q1007 S (170°) 8.1mph 7°C 4°C
15/03/19 22:50 EGYD 152250Z AUTO 23007KT 9999 // FEW046/// OVC070/// 07/03 Q1007 SW (230°) 8.1mph 7°C 3°C
15/03/19 21:50 EGYD 152150Z AUTO 23010KT 9999 // FEW046/// BKN090/// BKN140/// 06/03 Q1008 SW (230°) 11.5mph 6°C 3°C
15/03/19 20:50 EGYD 152050Z AUTO 27011KT 9999 // BKN140/// 08/01 Q1007 W (270°) 12.7mph 8°C 1°C
15/03/19 19:50 EGYD 151950Z AUTO 26015KT 9999 // BKN170/// 08/01 Q1007 W (260°) 17.3mph 8°C 1°C
15/03/19 18:50 EGYD 151850Z AUTO 27013KT 9999 // FEW039/// BKN045/// 09/01 Q1007 W (270°) 15.0mph 9°C 1°C
15/03/19 17:50 EGYD 151750Z AUTO 28017KT 9999 // NCD 09/01 Q1005 W (280°) 19.6mph 9°C 1°C
15/03/19 16:50 EGYD 151650Z 29021KT CAVOK 10/02 Q1005 BLU WNW (290°) 24.2mph 10°C 2°C
15/03/19 15:50 EGYD 151550Z 27021KT 9999 BKN042 BKN250 10/03 Q1004 BLU W (270°) 24.2mph 10°C 3°C
15/03/19 14:50 EGYD 151450Z 27022KT 9999 FEW046 BKN250 12/03 Q1003 BLU W (270°) 25.3mph 12°C 3°C
15/03/19 13:50 EGYD 151350Z 28020G31KT 9999 FEW045 BKN250 12/03 Q1003 BLU W (280°) 23.0mph 35.7mph 12°C 3°C
15/03/19 12:50 EGYD 151250Z 28026G36KT 9999 FEW045 BKN250 12/02 Q1002 BLU W (280°) 29.9mph 41.4mph 12°C 2°C
15/03/19 11:50 EGYD 151150Z 28020G30KT 9999 FEW043 BKN250 13/04 Q1002 BLU NOSIG W (280°) 23.0mph 34.5mph 13°C 4°C
15/03/19 10:50 EGYD 151050Z 28019G29KT 9999 SCT030 BKN250 12/05 Q1002 BLU NOSIG W (280°) 21.9mph 33.4mph 12°C 5°C
15/03/19 09:50 EGYD 150950Z 28020KT 9999 FEW038 SCT250 13/06 Q1001 BLU NOSIG W (280°) 23.0mph 13°C 6°C
15/03/19 08:50 EGYD 150850Z 27025G37KT 9999 FEW015 BKN033 12/07 Q1000 BLU NOSIG W (270°) 28.8mph 42.6mph 12°C 7°C
15/03/19 07:50 EGYD 150750Z 26026KT 9999 BKN023 BKN036 12/09 Q0999 WHT BECMG FEW023 BLU W (260°) 29.9mph 12°C 9°C
15/03/19 06:50 EGYD 150650Z 26025KT 9999 BKN018 OVC028 11/09 Q0998 WHT BECMG FEW018 BLU W (260°) 28.8mph 11°C 9°C
15/03/19 05:50 EGYD 150550Z AUTO 25024KT 9999 // BKN021/// 11/09 Q0998 WSW (250°) 27.6mph 11°C 9°C
15/03/19 04:50 EGYD 150450Z AUTO 25022KT 9999 // SCT015/// BKN023/// 11/09 Q0998 WSW (250°) 25.3mph 11°C 9°C
15/03/19 03:50 EGYD 150350Z AUTO 24018KT 9999 // FEW011/// BKN014/// BKN022/// 10/09 Q0999 WSW (240°) 20.7mph 10°C 9°C
15/03/19 02:50 EGYD 150250Z AUTO 22016KT 6000 // BKN010/// 08/08 Q1000 SW (220°) 18.4mph 8°C 8°C
15/03/19 01:50 EGYD 150150Z AUTO 22012KT 5000 // FEW013/// BKN029/// 07/06 Q1001 SW (220°) 13.8mph 7°C 6°C
15/03/19 00:50 EGYD 150050Z AUTO 23015KT 9999 // FEW040/// BKN050/// 08/05 Q1002 SW (230°) 17.3mph 8°C 5°C
14/03/19 23:50 EGYD 142350Z AUTO 23014KT 9999 // BKN060/// 08/04 Q1003 SW (230°) 16.1mph 8°C 4°C
14/03/19 22:50 EGYD 142250Z AUTO 23014KT 9999 // FEW047/// BKN110/// 08/04 Q1004 SW (230°) 16.1mph 8°C 4°C
14/03/19 21:50 EGYD 142150Z AUTO 25012KT 9999 // SCT050/// BKN130/// 08/04 Q1004 WSW (250°) 13.8mph 8°C 4°C
14/03/19 20:50 EGYD 142050Z AUTO 27007KT 9999 // BKN140/// 08/03 Q1005 W (270°) 8.1mph 8°C 3°C
14/03/19 19:50 EGYD 141950Z AUTO 27015KT 9999 // FEW160/// 08/03 Q1004 W (270°) 17.3mph 8°C 3°C
14/03/19 18:50 EGYD 141850Z AUTO 28014KT 9999 // SCT050/// 08/03 Q1004 W (280°) 16.1mph 8°C 3°C
14/03/19 17:50 EGYD 141750Z AUTO 28013KT 9999 // SCT039/// SCT044/// 09/03 Q1004 W (280°) 15.0mph 9°C 3°C
14/03/19 16:50 EGYD 141650Z 29018G28KT 9999 FEW045 10/02 Q1003 BLU WNW (290°) 20.7mph 32.2mph 10°C 2°C
14/03/19 15:50 EGYD 141550Z 28024G38KT 9999 FEW045 11/01 Q1002 BLU W (280°) 27.6mph 43.7mph 11°C 1°C
14/03/19 14:50 EGYD 141450Z 29021G33KT 9999 FEW045 11/02 Q1001 BLU WNW (290°) 24.2mph 38.0mph 11°C 2°C
14/03/19 13:50 EGYD 141350Z 28025G41KT 9999 SCT045 11/02 Q1000 BLU NOSIG W (280°) 28.8mph 47.2mph 11°C 2°C
14/03/19 12:50 EGYD 141250Z 30026G37KT 9999 SCT040 12/03 Q0999 BLU NOSIG WNW (300°) 29.9mph 42.6mph 12°C 3°C
14/03/19 11:50 EGYD 141150Z 30024G37KT 9999 FEW030 10/04 Q0998 BLU NOSIG WNW (300°) 27.6mph 42.6mph 10°C 4°C
14/03/19 10:50 EGYD 141050Z 29023KT 9999 SCT035 11/05 Q0997 BLU NOSIG WNW (290°) 26.5mph 11°C 5°C
14/03/19 09:50 EGYD 140950Z 30020G32KT 9999 SCT035 10/06 Q0997 BLU NOSIG WNW (300°) 23.0mph 36.8mph 10°C 6°C
14/03/19 09:19 EGYD 140919Z 29019G30KT 9999 6000SE SHRA SCT020 SCT030 09/07 Q0996 WHT BECMG 9999 NSW FEW020 BLU SHRA WNW (290°) 21.9mph 34.5mph 9°C 7°C
14/03/19 08:40 EGYD 140840Z 28024G39KT 9999 VCSH FEW012TCU SCT025 10/07 Q0995 RESHRA BLU TEMPO 6000 SHRA BKN012 GRN VCSH W (280°) 27.6mph 44.9mph 10°C 7°C
14/03/19 07:38 EGYD 140738Z 25029G42KT 9999 -RA SCT012 SCT030 BKN090 09/07 Q0994 GRN TEMPO FEW012 SCT030 BLU -RA WSW (250°) 33.4mph 48.3mph 9°C 7°C
14/03/19 06:50 EGYD 140650Z 24029KT 9999 -RA SCT015 BKN090 08/06 Q0995 WHT TEMPO FEW015 BLU -RA WSW (240°) 33.4mph 8°C 6°C
14/03/19 05:50 EGYD 140550Z AUTO 23028KT 9999 // BKN018/// SCT100/// 07/05 Q0996 SW (230°) 32.2mph 7°C 5°C
14/03/19 04:50 EGYD 140450Z AUTO 24029KT 9999 // BKN023/// 07/05 Q0998 WSW (240°) 33.4mph 7°C 5°C
14/03/19 03:50 EGYD 140350Z AUTO 23025KT 9999 // BKN020/// BKN130/// 07/05 Q1000 SW (230°) 28.8mph 7°C 5°C
14/03/19 02:50 EGYD 140250Z AUTO 23025KT 9999 // BKN120/// 07/05 Q1002 SW (230°) 28.8mph 7°C 5°C
14/03/19 01:50 EGYD 140150Z AUTO 24022KT 9999 // OVC120/// 07/04 Q1004 WSW (240°) 25.3mph 7°C 4°C
14/03/19 00:50 EGYD 140050Z AUTO 24018KT 9999 // FEW070/// SCT090/// BKN140/// 06/04 Q1006 WSW (240°) 20.7mph 6°C 4°C
13/03/19 23:50 EGYD 132350Z AUTO 25018KT 9999 // FEW025/// BKN090/// 07/03 Q1007 WSW (250°) 20.7mph 7°C 3°C
13/03/19 22:50 EGYD 132250Z AUTO 27018KT 9999 // BKN025/// SCT032/// 07/03 Q1008 W (270°) 20.7mph 7°C 3°C
13/03/19 21:50 EGYD 132150Z AUTO 26019KT 9999 // SCT031/// BKN044/// 07/03 Q1009 W (260°) 21.9mph 7°C 3°C
13/03/19 20:50 EGYD 132050Z AUTO 26014KT 9999 // FEW031/// BKN090/// 07/02 Q1009 W (260°) 16.1mph 7°C 2°C
13/03/19 19:50 EGYD 131950Z AUTO 27014KT 9999 // SCT120/// 07/02 Q1009 W (270°) 16.1mph 7°C 2°C
13/03/19 18:50 EGYD 131850Z AUTO 27014KT 9999 // FEW038/// 07/02 Q1009 W (270°) 16.1mph 7°C 2°C
13/03/19 17:50 EGYD 131750Z AUTO 29019KT 9999 // FEW028/// BKN032/// 08/02 Q1008 WNW (290°) 21.9mph 8°C 2°C
13/03/19 16:50 EGYD 131650Z 28022KT 9999 FEW030 BKN250 09/03 Q1007 BLU W (280°) 25.3mph 9°C 3°C
13/03/19 15:50 EGYD 131550Z 29023G34KT 9999 VCSH BKN030 09/03 Q1006 BLU VCSH WNW (290°) 26.5mph 39.1mph 9°C 3°C
13/03/19 14:50 EGYD 131450Z 29027G41KT 9999 SCT030 10/03 Q1005 BLU WNW (290°) 31.1mph 47.2mph 10°C 3°C
13/03/19 13:50 EGYD 131350Z 29025G37KT 9999 BKN028 09/04 Q1004 BLU WNW (290°) 28.8mph 42.6mph 9°C 4°C
13/03/19 12:50 EGYD 131250Z 29027G44KT 9999 SCT028 10/03 Q1003 BLU WNW (290°) 31.1mph 50.6mph 10°C 3°C
13/03/19 11:50 EGYD 131150Z 29027G41KT 9999 SCT030 09/04 Q1002 BLU WNW (290°) 31.1mph 47.2mph 9°C 4°C
13/03/19 10:50 EGYD 131050Z 29026G36KT 9999 BKN028 09/03 Q1001 BLU WNW (290°) 29.9mph 41.4mph 9°C 3°C
13/03/19 09:50 EGYD 130950Z 28023G42KT 9999 BKN028 09/03 Q1000 BLU TEMPO 6000 SHRA BKN020CB WHT W (280°) 26.5mph 48.3mph 9°C 3°C
13/03/19 08:50 EGYD 130850Z 27022G34KT 9999 BKN025 08/04 Q0999 BLU TEMPO 6000 SHRA BKN020CB WHT W (270°) 25.3mph 39.1mph 8°C 4°C
13/03/19 07:50 EGYD 130750Z 26025KT 9999 BKN022 SCT250 07/04 Q0997 WHT TEMPO 6000 SHRA BKN020CB WHT W (260°) 28.8mph 7°C 4°C
13/03/19 06:50 EGYD 130650Z 26024G35KT 9999 -SHRA FEW012 BKN020 06/04 Q0996 WHT TEMPO NSW FEW020 SCT050 BLU -SHRA W (260°) 27.6mph 40.3mph 6°C 4°C
13/03/19 05:50 EGYD 130550Z AUTO 25025KT 9999 // FEW019/// BKN029/// 06/04 Q0996 WSW (250°) 28.8mph 6°C 4°C
13/03/19 04:50 EGYD 130450Z AUTO 25027KT 9999 // BKN016/// 06/04 Q0995 WSW (250°) 31.1mph 6°C 4°C